Overview Statistics Trail Chart Weather Telemetry Raw packets
 

This is the latest recevied weather packets stored in our database for station/object NK7E-2. If no packets are shown the sender has not sent any weather packets the latest 10 day(s).

<< 25 26 27 28 29 30 31 >>
Time Temp. Humidity Pressure Rain* Wind** Luminosity Snow
1788069017 28.89° C 43% 1029.4 hPa 0 mm - - -
1788068417 28.89° C 43% 1029.5 hPa 0 mm - - -
1788067817 28.89° C 44% 1029.5 hPa 0 mm - - -
1788067217 28.89° C 44% 1029.6 hPa 0 mm - - -
1788066617 28.89° C 44% 1029.8 hPa 0 mm - - -
1788066017 28.89° C 43% 1029.7 hPa 0 mm - - -
1788065417 28.89° C 42% 1029.4 hPa 0 mm - - -
1788064817 28.89° C 42% 1029 hPa 0 mm - - -
1788064219 28.33° C 45% 1029.1 hPa 0 mm - - -
1788063617 27.78° C 47% 1028.9 hPa 0 mm - - -
1788063017 27.78° C 48% 1028.9 hPa 0 mm - - -
1788062417 28.33° C 47% 1028.9 hPa 0 mm - - -
1788061817 28.89° C 44% 1029.2 hPa 0 mm - - -
1788061217 29.44° C 39% 1028.8 hPa 0 mm - - -
1788060617 30° C 40% 1028.6 hPa 0 mm - - -
1788060017 30.56° C 40% 1028.5 hPa 0 mm - - -
1788059417 30.56° C 41% 1028.2 hPa 0 mm - - -
1788058817 31.11° C 39% 1027.2 hPa 0 mm - - -
1788058217 31.11° C 39% 1027.1 hPa 0 mm - - -
1788057617 31.67° C 36% 1027 hPa 0 mm - - -
1788057017 32.22° C 35% 1025.7 hPa 0 mm - - -
1788056417 32.22° C 33% 1025.4 hPa 0 mm - - -
1788055817 32.78° C 33% 1025.4 hPa 0 mm - - -
1788055217 32.78° C 33% 1025.5 hPa 0 mm - - -
1788054617 32.78° C 33% 1025.4 hPa 0 mm - - -

* Rain latest hour (hover to see other rain measurements)
** Current wind speed in m/s (hover to see current wind gust speed)